< < Back
Terminal Aerodrome Forecast


Current Version              Previous Versions:   1  2  3  4  5  6  7  8  9  

Terminal Aerodrome Forecast

586
FTUS42 KMLB 182327
TAFDAB
TAF
KDAB 182327Z 1900/1924 VRB03KT P6SM SCT080 BKN250
      TEMPO 1908/1911 5SM BR
     FM191400 19008KT P6SM SCT020 BKN200
     FM191800 25008KT P6SM VCTS SCT040CB BKN250=

Latest METAR

699
SAUS80 KWBC 192200 RRB
MTRDAB
METAR KDAB 192153Z 22009G15KT 7SM -TSRA SCT065CB BKN080 OVC200 27/21
A2985 RMK AO2 WSHFT 2105 RAB47 TSB44 SLP106 OCNL LTGICCG VC
SE-SW TS VC SE-SW MOV NE CB DSNT NE NW-N P0000 T02670206


USA.gov is the U.S. government's official web portal to all federal, state and local government web resources and services.